sensor_id;sensor_type;location;lat;lon;timestamp;P1;durP1;ratioP1;P2;durP2;ratioP2
75035;SDS011;64247;51.540;5.854;2023-02-11T00:00:55;16.52;;;7.68;;
75035;SDS011;64247;51.540;5.854;2023-02-11T00:02:56;19.90;;;9.35;;
75035;SDS011;64247;51.540;5.854;2023-02-11T00:04:57;13.25;;;7.32;;
75035;SDS011;64247;51.540;5.854;2023-02-11T00:07:00;14.60;;;7.43;;
75035;SDS011;64247;51.540;5.854;2023-02-11T00:09:01;15.25;;;7.47;;
75035;SDS011;64247;51.540;5.854;2023-02-11T00:11:03;20.77;;;10.18;;
75035;SDS011;64247;51.540;5.854;2023-02-11T00:13:04;15.38;;;9.30;;
75035;SDS011;64247;51.540;5.854;2023-02-11T00:15:06;9.85;;;5.10;;
75035;SDS011;64247;51.540;5.854;2023-02-11T00:17:08;19.58;;;12.57;;
75035;SDS011;64247;51.540;5.854;2023-02-11T00:19:09;13.48;;;6.10;;
75035;SDS011;64247;51.540;5.854;2023-02-11T00:23:13;14.43;;;6.85;;
75035;SDS011;64247;51.540;5.854;2023-02-11T00:25:14;15.93;;;7.25;;
75035;SDS011;64247;51.540;5.854;2023-02-11T00:27:15;16.48;;;8.45;;
75035;SDS011;64247;51.540;5.854;2023-02-11T00:29:16;15.55;;;7.45;;
75035;SDS011;64247;51.540;5.854;2023-02-11T00:31:18;9.05;;;5.50;;
75035;SDS011;64247;51.540;5.854;2023-02-11T00:33:22;13.52;;;7.32;;
75035;SDS011;64247;51.540;5.854;2023-02-11T00:35:24;14.38;;;7.95;;
75035;SDS011;64247;51.540;5.854;2023-02-11T00:37:25;17.33;;;9.48;;
75035;SDS011;64247;51.540;5.854;2023-02-11T00:39:25;18.77;;;7.25;;
75035;SDS011;64247;51.540;5.854;2023-02-11T00:43:28;21.45;;;8.82;;
75035;SDS011;64247;51.540;5.854;2023-02-11T00:45:29;18.15;;;6.55;;
75035;SDS011;64247;51.540;5.854;2023-02-11T00:47:30;15.13;;;6.40;;
75035;SDS011;64247;51.540;5.854;2023-02-11T00:49:31;15.48;;;6.65;;
75035;SDS011;64247;51.540;5.854;2023-02-11T00:51:32;18.10;;;5.88;;
75035;SDS011;64247;51.540;5.854;2023-02-11T00:53:33;15.75;;;7.47;;
75035;SDS011;64247;51.540;5.854;2023-02-11T00:55:35;15.00;;;6.03;;
75035;SDS011;64247;51.540;5.854;2023-02-11T00:57:36;16.70;;;6.93;;
75035;SDS011;64247;51.540;5.854;2023-02-11T00:59:37;10.45;;;5.85;;
75035;SDS011;64247;51.540;5.854;2023-02-11T01:01:39;18.33;;;9.10;;
75035;SDS011;64247;51.540;5.854;2023-02-11T01:03:41;21.10;;;9.60;;
75035;SDS011;64247;51.540;5.854;2023-02-11T01:05:42;15.40;;;5.95;;
75035;SDS011;64247;51.540;5.854;2023-02-11T01:07:43;11.85;;;7.22;;
75035;SDS011;64247;51.540;5.854;2023-02-11T01:09:44;12.38;;;6.93;;
75035;SDS011;64247;51.540;5.854;2023-02-11T01:13:47;9.00;;;5.00;;
75035;SDS011;64247;51.540;5.854;2023-02-11T01:15:49;11.23;;;5.75;;
75035;SDS011;64247;51.540;5.854;2023-02-11T01:17:51;9.05;;;4.15;;
75035;SDS011;64247;51.540;5.854;2023-02-11T01:19:53;14.52;;;5.30;;
75035;SDS011;64247;51.540;5.854;2023-02-11T01:21:54;14.23;;;5.68;;
75035;SDS011;64247;51.540;5.854;2023-02-11T01:23:55;14.07;;;5.38;;
75035;SDS011;64247;51.540;5.854;2023-02-11T01:25:56;6.25;;;3.97;;
75035;SDS011;64247;51.540;5.854;2023-02-11T01:27:57;14.63;;;6.85;;
75035;SDS011;64247;51.540;5.854;2023-02-11T01:29:58;10.55;;;5.05;;
75035;SDS011;64247;51.540;5.854;2023-02-11T01:31:59;6.03;;;3.38;;
75035;SDS011;64247;51.540;5.854;2023-02-11T01:34:00;14.68;;;7.07;;
75035;SDS011;64247;51.540;5.854;2023-02-11T01:36:02;15.32;;;6.55;;
75035;SDS011;64247;51.540;5.854;2023-02-11T01:38:13;6.97;;;4.70;;
75035;SDS011;64247;51.540;5.854;2023-02-11T01:40:21;15.20;;;8.45;;
75035;SDS011;64247;51.540;5.854;2023-02-11T01:42:22;18.13;;;7.10;;
75035;SDS011;64247;51.540;5.854;2023-02-11T01:44:32;10.75;;;6.07;;
75035;SDS011;64247;51.540;5.854;2023-02-11T01:46:39;10.65;;;6.00;;
75035;SDS011;64247;51.540;5.854;2023-02-11T01:48:41;9.57;;;5.85;;
75035;SDS011;64247;51.540;5.854;2023-02-11T01:52:52;10.38;;;5.35;;
75035;SDS011;64247;51.540;5.854;2023-02-11T01:55:14;8.65;;;5.35;;
75035;SDS011;64247;51.540;5.854;2023-02-11T01:57:34;10.52;;;5.57;;
75035;SDS011;64247;51.540;5.854;2023-02-11T01:59:51;10.77;;;5.78;;
75035;SDS011;64247;51.540;5.854;2023-02-11T02:02:22;13.32;;;6.85;;
75035;SDS011;64247;51.540;5.854;2023-02-11T02:05:07;10.90;;;5.70;;
75035;SDS011;64247;51.540;5.854;2023-02-11T02:10:35;13.25;;;6.93;;
75035;SDS011;64247;51.540;5.854;2023-02-11T02:12:42;15.63;;;5.82;;
75035;SDS011;64247;51.540;5.854;2023-02-11T02:14:43;14.23;;;6.07;;
75035;SDS011;64247;51.540;5.854;2023-02-11T02:16:44;12.68;;;6.30;;
75035;SDS011;64247;51.540;5.854;2023-02-11T02:27:28;8.52;;;5.10;;
75035;SDS011;64247;51.540;5.854;2023-02-11T02:35:58;15.50;;;5.70;;
75035;SDS011;64247;51.540;5.854;2023-02-11T02:41:24;12.35;;;5.97;;
75035;SDS011;64247;51.540;5.854;2023-02-11T02:43:30;15.95;;;7.78;;
75035;SDS011;64247;51.540;5.854;2023-02-11T02:45:33;7.75;;;5.22;;
75035;SDS011;64247;51.540;5.854;2023-02-11T02:47:34;16.77;;;6.82;;
75035;SDS011;64247;51.540;5.854;2023-02-11T02:49:35;11.07;;;6.07;;
75035;SDS011;64247;51.540;5.854;2023-02-11T03:02:51;14.55;;;6.40;;
75035;SDS011;64247;51.540;5.854;2023-02-11T03:10:48;10.07;;;5.38;;
75035;SDS011;64247;51.540;5.854;2023-02-11T03:12:52;10.05;;;5.57;;
75035;SDS011;64247;51.540;5.854;2023-02-11T03:14:56;8.88;;;4.60;;
75035;SDS011;64247;51.540;5.854;2023-02-11T03:17:02;9.27;;;4.05;;
75035;SDS011;64247;51.540;5.854;2023-02-11T03:21:44;10.55;;;5.50;;
75035;SDS011;64247;51.540;5.854;2023-02-11T03:23:50;12.90;;;6.15;;
75035;SDS011;64247;51.540;5.854;2023-02-11T03:26:02;15.75;;;8.02;;
75035;SDS011;64247;51.540;5.854;2023-02-11T03:36:45;12.93;;;6.20;;
75035;SDS011;64247;51.540;5.854;2023-02-11T03:39:06;7.93;;;4.88;;
75035;SDS011;64247;51.540;5.854;2023-02-11T03:41:10;7.82;;;5.45;;
75035;SDS011;64247;51.540;5.854;2023-02-11T03:43:19;14.07;;;6.38;;
75035;SDS011;64247;51.540;5.854;2023-02-11T03:45:28;13.93;;;6.55;;
75035;SDS011;64247;51.540;5.854;2023-02-11T03:47:30;14.50;;;7.32;;
75035;SDS011;64247;51.540;5.854;2023-02-11T03:49:36;10.07;;;5.43;;
75035;SDS011;64247;51.540;5.854;2023-02-11T03:51:40;10.65;;;4.63;;
75035;SDS011;64247;51.540;5.854;2023-02-11T03:53:42;12.88;;;6.32;;
75035;SDS011;64247;51.540;5.854;2023-02-11T03:55:48;12.70;;;6.57;;
75035;SDS011;64247;51.540;5.854;2023-02-11T03:57:52;11.85;;;5.40;;
75035;SDS011;64247;51.540;5.854;2023-02-11T03:59:54;15.38;;;6.45;;
75035;SDS011;64247;51.540;5.854;2023-02-11T04:01:58;8.38;;;5.65;;
75035;SDS011;64247;51.540;5.854;2023-02-11T04:05:59;12.55;;;6.30;;
75035;SDS011;64247;51.540;5.854;2023-02-11T04:10:02;14.05;;;4.60;;
75035;SDS011;64247;51.540;5.854;2023-02-11T04:12:04;9.38;;;4.47;;
75035;SDS011;64247;51.540;5.854;2023-02-11T04:14:05;15.40;;;7.60;;
75035;SDS011;64247;51.540;5.854;2023-02-11T04:16:06;12.15;;;5.88;;
75035;SDS011;64247;51.540;5.854;2023-02-11T04:18:07;12.50;;;6.82;;
75035;SDS011;64247;51.540;5.854;2023-02-11T04:20:08;12.63;;;5.95;;
75035;SDS011;64247;51.540;5.854;2023-02-11T04:22:10;13.27;;;7.75;;
75035;SDS011;64247;51.540;5.854;2023-02-11T04:24:11;10.48;;;5.72;;
75035;SDS011;64247;51.540;5.854;2023-02-11T04:26:12;9.05;;;5.60;;
75035;SDS011;64247;51.540;5.854;2023-02-11T04:28:13;11.18;;;5.10;;
75035;SDS011;64247;51.540;5.854;2023-02-11T04:30:14;14.07;;;5.25;;
75035;SDS011;64247;51.540;5.854;2023-02-11T04:32:15;15.88;;;6.88;;
75035;SDS011;64247;51.540;5.854;2023-02-11T04:34:16;12.73;;;6.13;;
75035;SDS011;64247;51.540;5.854;2023-02-11T04:36:17;16.08;;;6.72;;
75035;SDS011;64247;51.540;5.854;2023-02-11T04:38:17;15.10;;;7.00;;
75035;SDS011;64247;51.540;5.854;2023-02-11T04:42:19;8.40;;;4.68;;
75035;SDS011;64247;51.540;5.854;2023-02-11T04:44:20;8.00;;;4.45;;
75035;SDS011;64247;51.540;5.854;2023-02-11T04:46:21;10.27;;;5.45;;
75035;SDS011;64247;51.540;5.854;2023-02-11T04:48:22;5.05;;;2.80;;
75035;SDS011;64247;51.540;5.854;2023-02-11T04:50:24;14.55;;;5.07;;
75035;SDS011;64247;51.540;5.854;2023-02-11T04:52:25;7.30;;;3.47;;
75035;SDS011;64247;51.540;5.854;2023-02-11T04:54:26;11.32;;;5.45;;
75035;SDS011;64247;51.540;5.854;2023-02-11T04:58:27;12.70;;;7.35;;
75035;SDS011;64247;51.540;5.854;2023-02-11T05:00:28;7.22;;;4.38;;
75035;SDS011;64247;51.540;5.854;2023-02-11T05:02:29;9.20;;;4.93;;
75035;SDS011;64247;51.540;5.854;2023-02-11T05:04:30;11.18;;;4.70;;
75035;SDS011;64247;51.540;5.854;2023-02-11T05:06:31;17.35;;;6.95;;
75035;SDS011;64247;51.540;5.854;2023-02-11T05:08:32;16.88;;;5.47;;
75035;SDS011;64247;51.540;5.854;2023-02-11T05:10:33;16.50;;;5.93;;
75035;SDS011;64247;51.540;5.854;2023-02-11T05:12:34;18.40;;;6.53;;
75035;SDS011;64247;51.540;5.854;2023-02-11T05:14:35;13.93;;;7.10;;
75035;SDS011;64247;51.540;5.854;2023-02-11T05:16:36;11.98;;;6.22;;
75035;SDS011;64247;51.540;5.854;2023-02-11T05:18:37;9.57;;;4.40;;
75035;SDS011;64247;51.540;5.854;2023-02-11T05:20:41;14.02;;;5.60;;
75035;SDS011;64247;51.540;5.854;2023-02-11T05:22:43;11.23;;;5.95;;
75035;SDS011;64247;51.540;5.854;2023-02-11T05:24:44;14.90;;;5.70;;
75035;SDS011;64247;51.540;5.854;2023-02-11T05:26:45;13.43;;;7.13;;
75035;SDS011;64247;51.540;5.854;2023-02-11T05:28:45;22.40;;;7.82;;
75035;SDS011;64247;51.540;5.854;2023-02-11T05:30:46;14.13;;;6.97;;
75035;SDS011;64247;51.540;5.854;2023-02-11T05:32:48;27.35;;;11.13;;
75035;SDS011;64247;51.540;5.854;2023-02-11T05:34:48;12.15;;;5.15;;
75035;SDS011;64247;51.540;5.854;2023-02-11T05:36:49;14.70;;;8.02;;
75035;SDS011;64247;51.540;5.854;2023-02-11T05:38:50;21.13;;;8.40;;
75035;SDS011;64247;51.540;5.854;2023-02-11T05:40:51;17.58;;;7.50;;
75035;SDS011;64247;51.540;5.854;2023-02-11T05:42:52;17.67;;;7.13;;
75035;SDS011;64247;51.540;5.854;2023-02-11T05:44:53;15.38;;;8.02;;
75035;SDS011;64247;51.540;5.854;2023-02-11T05:46:53;14.88;;;8.25;;
75035;SDS011;64247;51.540;5.854;2023-02-11T05:48:54;12.45;;;5.25;;
75035;SDS011;64247;51.540;5.854;2023-02-11T05:50:55;14.52;;;7.15;;
75035;SDS011;64247;51.540;5.854;2023-02-11T05:52:57;17.58;;;7.78;;
75035;SDS011;64247;51.540;5.854;2023-02-11T05:54:57;17.33;;;7.75;;
75035;SDS011;64247;51.540;5.854;2023-02-11T05:56:58;16.95;;;6.70;;
75035;SDS011;64247;51.540;5.854;2023-02-11T05:58:59;20.63;;;8.85;;
75035;SDS011;64247;51.540;5.854;2023-02-11T06:01:00;14.38;;;5.97;;
75035;SDS011;64247;51.540;5.854;2023-02-11T06:03:01;14.63;;;6.07;;
75035;SDS011;64247;51.540;5.854;2023-02-11T06:05:03;9.05;;;5.30;;
75035;SDS011;64247;51.540;5.854;2023-02-11T06:07:04;17.17;;;8.30;;
75035;SDS011;64247;51.540;5.854;2023-02-11T06:09:05;15.73;;;7.20;;
75035;SDS011;64247;51.540;5.854;2023-02-11T06:11:06;9.63;;;5.10;;
75035;SDS011;64247;51.540;5.854;2023-02-11T06:13:07;16.05;;;7.57;;
75035;SDS011;64247;51.540;5.854;2023-02-11T06:15:08;15.43;;;6.82;;
75035;SDS011;64247;51.540;5.854;2023-02-11T06:17:10;17.60;;;7.95;;
75035;SDS011;64247;51.540;5.854;2023-02-11T06:19:11;13.63;;;5.82;;
75035;SDS011;64247;51.540;5.854;2023-02-11T06:21:12;10.93;;;6.20;;
75035;SDS011;64247;51.540;5.854;2023-02-11T06:23:13;16.27;;;8.02;;
75035;SDS011;64247;51.540;5.854;2023-02-11T06:25:14;12.85;;;6.05;;
75035;SDS011;64247;51.540;5.854;2023-02-11T06:27:15;12.57;;;6.00;;
75035;SDS011;64247;51.540;5.854;2023-02-11T06:29:16;13.38;;;5.20;;
75035;SDS011;64247;51.540;5.854;2023-02-11T06:31:17;13.73;;;6.43;;
75035;SDS011;64247;51.540;5.854;2023-02-11T06:33:18;16.77;;;7.50;;
75035;SDS011;64247;51.540;5.854;2023-02-11T06:35:19;17.23;;;8.80;;
75035;SDS011;64247;51.540;5.854;2023-02-11T06:37:20;14.35;;;5.50;;
75035;SDS011;64247;51.540;5.854;2023-02-11T06:39:21;11.60;;;5.90;;
75035;SDS011;64247;51.540;5.854;2023-02-11T06:41:22;15.27;;;4.93;;
75035;SDS011;64247;51.540;5.854;2023-02-11T06:43:23;9.98;;;5.10;;
75035;SDS011;64247;51.540;5.854;2023-02-11T06:45:24;10.10;;;3.90;;
75035;SDS011;64247;51.540;5.854;2023-02-11T06:47:25;18.88;;;8.13;;
75035;SDS011;64247;51.540;5.854;2023-02-11T06:49:25;19.88;;;8.93;;
75035;SDS011;64247;51.540;5.854;2023-02-11T06:51:26;15.98;;;8.15;;
75035;SDS011;64247;51.540;5.854;2023-02-11T06:53:27;17.70;;;7.38;;
75035;SDS011;64247;51.540;5.854;2023-02-11T06:55:28;17.70;;;8.15;;
75035;SDS011;64247;51.540;5.854;2023-02-11T06:57:29;10.40;;;6.10;;
75035;SDS011;64247;51.540;5.854;2023-02-11T06:59:31;12.20;;;6.15;;
75035;SDS011;64247;51.540;5.854;2023-02-11T07:01:32;14.60;;;6.72;;
75035;SDS011;64247;51.540;5.854;2023-02-11T07:03:36;22.42;;;9.70;;
75035;SDS011;64247;51.540;5.854;2023-02-11T07:07:44;18.00;;;8.88;;
75035;SDS011;64247;51.540;5.854;2023-02-11T07:09:45;18.63;;;7.28;;
75035;SDS011;64247;51.540;5.854;2023-02-11T07:11:46;14.60;;;8.43;;
75035;SDS011;64247;51.540;5.854;2023-02-11T07:13:47;15.20;;;7.45;;
75035;SDS011;64247;51.540;5.854;2023-02-11T07:15:47;20.33;;;10.40;;
75035;SDS011;64247;51.540;5.854;2023-02-11T07:17:49;14.63;;;8.30;;
75035;SDS011;64247;51.540;5.854;2023-02-11T07:19:50;24.08;;;10.88;;
75035;SDS011;64247;51.540;5.854;2023-02-11T07:21:50;22.05;;;8.93;;
75035;SDS011;64247;51.540;5.854;2023-02-11T07:25:52;18.30;;;7.20;;
75035;SDS011;64247;51.540;5.854;2023-02-11T07:27:53;21.55;;;9.18;;
75035;SDS011;64247;51.540;5.854;2023-02-11T07:29:54;15.25;;;7.35;;
75035;SDS011;64247;51.540;5.854;2023-02-11T07:31:55;18.80;;;7.40;;
75035;SDS011;64247;51.540;5.854;2023-02-11T07:33:57;21.35;;;10.63;;
75035;SDS011;64247;51.540;5.854;2023-02-11T07:36:01;18.13;;;7.78;;
75035;SDS011;64247;51.540;5.854;2023-02-11T07:38:03;25.88;;;10.85;;
75035;SDS011;64247;51.540;5.854;2023-02-11T07:40:04;27.70;;;10.88;;
75035;SDS011;64247;51.540;5.854;2023-02-11T07:42:06;30.17;;;11.30;;
75035;SDS011;64247;51.540;5.854;2023-02-11T07:44:08;22.45;;;10.18;;
75035;SDS011;64247;51.540;5.854;2023-02-11T07:46:10;19.20;;;8.38;;
75035;SDS011;64247;51.540;5.854;2023-02-11T07:48:17;25.27;;;12.13;;
75035;SDS011;64247;51.540;5.854;2023-02-11T07:50:18;28.90;;;11.40;;
75035;SDS011;64247;51.540;5.854;2023-02-11T07:52:19;29.27;;;12.80;;
75035;SDS011;64247;51.540;5.854;2023-02-11T07:56:21;25.48;;;10.82;;
75035;SDS011;64247;51.540;5.854;2023-02-11T07:58:22;30.25;;;10.55;;
75035;SDS011;64247;51.540;5.854;2023-02-11T08:00:23;30.40;;;13.32;;
75035;SDS011;64247;51.540;5.854;2023-02-11T08:02:24;21.60;;;10.40;;
75035;SDS011;64247;51.540;5.854;2023-02-11T08:04:25;22.98;;;9.90;;
75035;SDS011;64247;51.540;5.854;2023-02-11T08:06:27;19.95;;;8.15;;
75035;SDS011;64247;51.540;5.854;2023-02-11T08:08:31;34.60;;;13.70;;
75035;SDS011;64247;51.540;5.854;2023-02-11T08:10:32;30.27;;;10.90;;
75035;SDS011;64247;51.540;5.854;2023-02-11T08:12:33;20.63;;;9.13;;
75035;SDS011;64247;51.540;5.854;2023-02-11T08:14:34;21.92;;;10.52;;
75035;SDS011;64247;51.540;5.854;2023-02-11T08:16:35;15.07;;;6.60;;
75035;SDS011;64247;51.540;5.854;2023-02-11T08:18:38;38.30;;;15.77;;
75035;SDS011;64247;51.540;5.854;2023-02-11T08:20:39;28.27;;;11.93;;
75035;SDS011;64247;51.540;5.854;2023-02-11T08:22:40;40.97;;;18.30;;
75035;SDS011;64247;51.540;5.854;2023-02-11T08:24:41;34.47;;;13.40;;
75035;SDS011;64247;51.540;5.854;2023-02-11T08:26:42;35.38;;;13.68;;
75035;SDS011;64247;51.540;5.854;2023-02-11T08:28:43;32.17;;;12.15;;
75035;SDS011;64247;51.540;5.854;2023-02-11T08:30:46;18.75;;;7.78;;
75035;SDS011;64247;51.540;5.854;2023-02-11T08:32:47;27.30;;;11.07;;
75035;SDS011;64247;51.540;5.854;2023-02-11T08:34:51;29.20;;;13.73;;
75035;SDS011;64247;51.540;5.854;2023-02-11T08:36:53;26.63;;;10.90;;
75035;SDS011;64247;51.540;5.854;2023-02-11T08:38:54;32.22;;;14.15;;
75035;SDS011;64247;51.540;5.854;2023-02-11T08:40:58;22.73;;;10.82;;
75035;SDS011;64247;51.540;5.854;2023-02-11T08:43:00;29.65;;;13.57;;
75035;SDS011;64247;51.540;5.854;2023-02-11T08:45:01;33.65;;;13.48;;
75035;SDS011;64247;51.540;5.854;2023-02-11T08:47:02;30.55;;;13.10;;
75035;SDS011;64247;51.540;5.854;2023-02-11T08:49:03;36.92;;;14.55;;
75035;SDS011;64247;51.540;5.854;2023-02-11T08:51:05;28.52;;;11.45;;
75035;SDS011;64247;51.540;5.854;2023-02-11T08:53:16;43.17;;;18.80;;
75035;SDS011;64247;51.540;5.854;2023-02-11T08:55:17;23.45;;;9.77;;
75035;SDS011;64247;51.540;5.854;2023-02-11T08:57:18;29.10;;;10.98;;
75035;SDS011;64247;51.540;5.854;2023-02-11T08:59:21;45.22;;;17.13;;
75035;SDS011;64247;51.540;5.854;2023-02-11T09:01:24;33.05;;;11.90;;
75035;SDS011;64247;51.540;5.854;2023-02-11T09:03:29;41.13;;;17.45;;
75035;SDS011;64247;51.540;5.854;2023-02-11T09:05:30;27.10;;;12.25;;
75035;SDS011;64247;51.540;5.854;2023-02-11T09:07:30;37.28;;;16.05;;
75035;SDS011;64247;51.540;5.854;2023-02-11T09:09:31;34.03;;;15.20;;
75035;SDS011;64247;51.540;5.854;2023-02-11T09:11:33;40.42;;;17.48;;
75035;SDS011;64247;51.540;5.854;2023-02-11T09:13:35;33.22;;;14.35;;
75035;SDS011;64247;51.540;5.854;2023-02-11T09:15:37;35.00;;;13.38;;
75035;SDS011;64247;51.540;5.854;2023-02-11T09:17:38;47.80;;;17.80;;
75035;SDS011;64247;51.540;5.854;2023-02-11T09:19:39;50.55;;;20.65;;
75035;SDS011;64247;51.540;5.854;2023-02-11T09:21:40;32.50;;;14.30;;
75035;SDS011;64247;51.540;5.854;2023-02-11T09:23:41;45.00;;;18.10;;
75035;SDS011;64247;51.540;5.854;2023-02-11T09:25:44;41.70;;;16.13;;
75035;SDS011;64247;51.540;5.854;2023-02-11T09:27:45;46.13;;;16.75;;
75035;SDS011;64247;51.540;5.854;2023-02-11T09:29:45;46.50;;;16.30;;
75035;SDS011;64247;51.540;5.854;2023-02-11T09:31:46;48.97;;;17.73;;
75035;SDS011;64247;51.540;5.854;2023-02-11T09:33:49;37.25;;;16.27;;
75035;SDS011;64247;51.540;5.854;2023-02-11T09:35:53;35.88;;;12.60;;
75035;SDS011;64247;51.540;5.854;2023-02-11T09:37:54;29.63;;;13.10;;
75035;SDS011;64247;51.540;5.854;2023-02-11T09:39:55;39.00;;;15.60;;
75035;SDS011;64247;51.540;5.854;2023-02-11T09:44:53;26.33;;;11.52;;
75035;SDS011;64247;51.540;5.854;2023-02-11T09:47:41;48.63;;;17.17;;
75035;SDS011;64247;51.540;5.854;2023-02-11T09:49:48;49.45;;;18.77;;
75035;SDS011;64247;51.540;5.854;2023-02-11T09:51:57;40.92;;;16.50;;
75035;SDS011;64247;51.540;5.854;2023-02-11T09:54:28;41.55;;;16.48;;
75035;SDS011;64247;51.540;5.854;2023-02-11T09:56:53;25.50;;;14.23;;
75035;SDS011;64247;51.540;5.854;2023-02-11T09:58:54;37.75;;;17.67;;
75035;SDS011;64247;51.540;5.854;2023-02-11T10:03:45;35.08;;;14.82;;
75035;SDS011;64247;51.540;5.854;2023-02-11T10:11:54;57.92;;;22.67;;
75035;SDS011;64247;51.540;5.854;2023-02-11T10:17:32;46.05;;;20.20;;
75035;SDS011;64247;51.540;5.854;2023-02-11T10:22:53;47.70;;;18.42;;
75035;SDS011;64247;51.540;5.854;2023-02-11T10:25:07;42.55;;;15.98;;
75035;SDS011;64247;51.540;5.854;2023-02-11T10:27:23;41.38;;;15.10;;
75035;SDS011;64247;51.540;5.854;2023-02-11T10:29:34;43.05;;;16.85;;
75035;SDS011;64247;51.540;5.854;2023-02-11T10:31:43;46.83;;;14.50;;
75035;SDS011;64247;51.540;5.854;2023-02-11T10:36:15;44.10;;;16.58;;
75035;SDS011;64247;51.540;5.854;2023-02-11T10:38:18;42.45;;;18.00;;
75035;SDS011;64247;51.540;5.854;2023-02-11T10:40:26;48.50;;;20.67;;
75035;SDS011;64247;51.540;5.854;2023-02-11T10:42:30;32.55;;;13.73;;
75035;SDS011;64247;51.540;5.854;2023-02-11T10:44:35;30.60;;;12.32;;
75035;SDS011;64247;51.540;5.854;2023-02-11T10:46:56;29.63;;;13.50;;
75035;SDS011;64247;51.540;5.854;2023-02-11T10:49:03;24.55;;;9.70;;
75035;SDS011;64247;51.540;5.854;2023-02-11T10:53:27;39.67;;;14.68;;
75035;SDS011;64247;51.540;5.854;2023-02-11T10:55:28;37.85;;;14.43;;
75035;SDS011;64247;51.540;5.854;2023-02-11T10:57:36;28.80;;;12.88;;
75035;SDS011;64247;51.540;5.854;2023-02-11T10:59:43;35.22;;;13.90;;
75035;SDS011;64247;51.540;5.854;2023-02-11T11:01:48;30.77;;;12.88;;
75035;SDS011;64247;51.540;5.854;2023-02-11T11:03:53;27.60;;;13.18;;
75035;SDS011;64247;51.540;5.854;2023-02-11T11:05:56;30.67;;;14.88;;
75035;SDS011;64247;51.540;5.854;2023-02-11T11:08:02;30.75;;;13.85;;
75035;SDS011;64247;51.540;5.854;2023-02-11T11:10:25;42.78;;;15.98;;
75035;SDS011;64247;51.540;5.854;2023-02-11T11:12:48;42.75;;;15.00;;
75035;SDS011;64247;51.540;5.854;2023-02-11T11:14:56;33.65;;;14.95;;
75035;SDS011;64247;51.540;5.854;2023-02-11T11:17:21;39.45;;;16.85;;
75035;SDS011;64247;51.540;5.854;2023-02-11T11:19:41;31.88;;;14.35;;
75035;SDS011;64247;51.540;5.854;2023-02-11T11:21:45;55.85;;;23.23;;
75035;SDS011;64247;51.540;5.854;2023-02-11T11:23:54;43.22;;;17.65;;
75035;SDS011;64247;51.540;5.854;2023-02-11T11:28:21;38.20;;;14.63;;
75035;SDS011;64247;51.540;5.854;2023-02-11T11:30:30;32.50;;;14.77;;
75035;SDS011;64247;51.540;5.854;2023-02-11T11:32:40;25.45;;;12.35;;
75035;SDS011;64247;51.540;5.854;2023-02-11T11:34:43;32.47;;;12.20;;
75035;SDS011;64247;51.540;5.854;2023-02-11T11:36:55;22.42;;;11.63;;
75035;SDS011;64247;51.540;5.854;2023-02-11T11:38:59;24.10;;;10.73;;
75035;SDS011;64247;51.540;5.854;2023-02-11T11:46:45;38.53;;;15.35;;
75035;SDS011;64247;51.540;5.854;2023-02-11T11:49:30;34.58;;;16.38;;
75035;SDS011;64247;51.540;5.854;2023-02-11T11:51:40;48.83;;;21.45;;
75035;SDS011;64247;51.540;5.854;2023-02-11T11:53:56;35.72;;;15.70;;
75035;SDS011;64247;51.540;5.854;2023-02-11T11:56:08;48.08;;;23.90;;
75035;SDS011;64247;51.540;5.854;2023-02-11T11:58:17;37.58;;;14.80;;
75035;SDS011;64247;51.540;5.854;2023-02-11T12:00:25;40.83;;;19.52;;
75035;SDS011;64247;51.540;5.854;2023-02-11T12:05:41;29.60;;;13.65;;
75035;SDS011;64247;51.540;5.854;2023-02-11T12:08:15;30.00;;;13.05;;
75035;SDS011;64247;51.540;5.854;2023-02-11T12:13:36;45.58;;;18.63;;
75035;SDS011;64247;51.540;5.854;2023-02-11T12:19:46;47.05;;;19.83;;
75035;SDS011;64247;51.540;5.854;2023-02-11T12:25:25;36.10;;;15.23;;
75035;SDS011;64247;51.540;5.854;2023-02-11T12:44:54;30.42;;;11.77;;
75035;SDS011;64247;51.540;5.854;2023-02-11T12:47:34;36.88;;;14.57;;
75035;SDS011;64247;51.540;5.854;2023-02-11T12:57:25;23.00;;;12.02;;
75035;SDS011;64247;51.540;5.854;2023-02-11T12:59:33;39.30;;;17.17;;
75035;SDS011;64247;51.540;5.854;2023-02-11T13:02:52;27.00;;;11.90;;
75035;SDS011;64247;51.540;5.854;2023-02-11T13:05:00;24.83;;;13.18;;
75035;SDS011;64247;51.540;5.854;2023-02-11T13:07:32;29.83;;;11.27;;
75035;SDS011;64247;51.540;5.854;2023-02-11T13:09:42;29.85;;;13.65;;
75035;SDS011;64247;51.540;5.854;2023-02-11T13:11:54;32.42;;;14.50;;
75035;SDS011;64247;51.540;5.854;2023-02-11T13:16:44;31.48;;;14.23;;
75035;SDS011;64247;51.540;5.854;2023-02-11T13:24:45;25.30;;;11.95;;
75035;SDS011;64247;51.540;5.854;2023-02-11T13:35:38;21.80;;;10.90;;
75035;SDS011;64247;51.540;5.854;2023-02-11T13:38:27;24.10;;;11.98;;
75035;SDS011;64247;51.540;5.854;2023-02-11T13:40:39;22.02;;;10.43;;
75035;SDS011;64247;51.540;5.854;2023-02-11T13:43:17;22.98;;;10.32;;
75035;SDS011;64247;51.540;5.854;2023-02-11T13:47:46;26.02;;;11.32;;
75035;SDS011;64247;51.540;5.854;2023-02-11T13:49:48;22.92;;;11.95;;
75035;SDS011;64247;51.540;5.854;2023-02-11T13:51:53;35.67;;;12.23;;
75035;SDS011;64247;51.540;5.854;2023-02-11T13:53:56;27.67;;;11.45;;
75035;SDS011;64247;51.540;5.854;2023-02-11T13:56:07;29.75;;;15.63;;
75035;SDS011;64247;51.540;5.854;2023-02-11T14:00:50;33.78;;;13.68;;
75035;SDS011;64247;51.540;5.854;2023-02-11T14:08:35;32.47;;;15.02;;
75035;SDS011;64247;51.540;5.854;2023-02-11T14:14:02;23.90;;;11.77;;
75035;SDS011;64247;51.540;5.854;2023-02-11T14:16:34;23.77;;;11.65;;
75035;SDS011;64247;51.540;5.854;2023-02-11T14:21:11;25.17;;;10.50;;
75035;SDS011;64247;51.540;5.854;2023-02-11T14:23:22;25.00;;;12.48;;
75035;SDS011;64247;51.540;5.854;2023-02-11T14:25:26;19.55;;;9.52;;
75035;SDS011;64247;51.540;5.854;2023-02-11T14:43:21;21.75;;;9.07;;
75035;SDS011;64247;51.540;5.854;2023-02-11T14:45:27;26.92;;;12.43;;
75035;SDS011;64247;51.540;5.854;2023-02-11T14:47:39;25.70;;;11.50;;
75035;SDS011;64247;51.540;5.854;2023-02-11T14:51:07;29.88;;;14.65;;
75035;SDS011;64247;51.540;5.854;2023-02-11T14:53:20;16.05;;;6.60;;
75035;SDS011;64247;51.540;5.854;2023-02-11T15:00:23;30.83;;;12.77;;
75035;SDS011;64247;51.540;5.854;2023-02-11T15:02:27;18.52;;;10.00;;
75035;SDS011;64247;51.540;5.854;2023-02-11T15:04:34;24.35;;;11.73;;
75035;SDS011;64247;51.540;5.854;2023-02-11T15:06:36;29.48;;;13.13;;
75035;SDS011;64247;51.540;5.854;2023-02-11T15:11:18;30.08;;;11.13;;
75035;SDS011;64247;51.540;5.854;2023-02-11T15:13:23;18.75;;;8.68;;
75035;SDS011;64247;51.540;5.854;2023-02-11T15:15:30;22.75;;;11.05;;
75035;SDS011;64247;51.540;5.854;2023-02-11T15:17:35;32.13;;;15.73;;
75035;SDS011;64247;51.540;5.854;2023-02-11T15:19:39;31.77;;;13.25;;
75035;SDS011;64247;51.540;5.854;2023-02-11T15:21:48;35.22;;;13.80;;
75035;SDS011;64247;51.540;5.854;2023-02-11T15:23:59;20.02;;;9.07;;
75035;SDS011;64247;51.540;5.854;2023-02-11T15:26:20;14.07;;;7.30;;
75035;SDS011;64247;51.540;5.854;2023-02-11T15:28:22;18.70;;;9.10;;
75035;SDS011;64247;51.540;5.854;2023-02-11T15:30:34;25.35;;;11.98;;
75035;SDS011;64247;51.540;5.854;2023-02-11T15:32:35;28.33;;;12.52;;
75035;SDS011;64247;51.540;5.854;2023-02-11T15:34:40;23.63;;;11.00;;
75035;SDS011;64247;51.540;5.854;2023-02-11T15:36:45;25.50;;;12.48;;
75035;SDS011;64247;51.540;5.854;2023-02-11T15:39:14;14.45;;;9.00;;
75035;SDS011;64247;51.540;5.854;2023-02-11T15:43:39;20.50;;;9.95;;